Hovedside
METAR-TAF:

METAR-TAF

Lufthavner :

Adelaide, Australia

Adelaide lufthavn

breddegrad: 34-56S, lengdegrad: 138-31E, høyde over havet: 6 m

Gjeldene værobservasjon

Denne rapporten ble laget for 20 minutter siden, klokken 02:00 UTC
Vind 12 kt fra Sør
Temperatur 28°C
Luftfuktighet 40%
Trykk 1009 hPa
Sikt 10 km eller mer
ingen skyer under 1500 m og ingen bygeskyer

METAR: YPAD 220200Z 17012KT CAVOK 28/13 Q1009 NOSIG

Tid: 12:50 (02:20 UTC)

Varsel

Denne rapporten ble laget for 17 minutter siden, klokken 02:03 UTC
Varsel gyldig fra 22. klokken 02 UTC til 23. klokken 06 UTC
Vind 15 kt fra Sør
Sikt 10 km eller mer
ingen skyer under 1500 m og ingen bygeskyer
Fra 22. klokken 0900 UTC
Vind 10 kt fra Sør
Sikt 10 km eller mer
Spredte skyer i en høyde av 2000 ft

TAF: YPAD 220203Z 2202/2306 19015KT CAVOK FM220900 17010KT 9999 SCT020

Værobservasjoner og værvarsel for over 4000 flyplasser (METAR- og TAF-rapporter).

Tilgjengelige stasjoner er representert av de røde og gule prikkene på kartet.

Hold musepekeren over prikken for å se navnet på stasjonen.

Klikk så for å se værobservasjoner og -varsler.

For å forandre kartet kan du klikke på den grønne knappen med svart kryss for å zoome inn, på den grønne knappen med strek for å zoome ut, eller på de grønne pilene for å se tilstøtende kart.


METAR-TAF: